sensor_id;sensor_type;location;lat;lon;timestamp;P1;durP1;ratioP1;P2;durP2;ratioP2
8293;SDS011;4185;41.506;24.938;2023-02-28T00:00:08;26.50;;;10.43;;
8293;SDS011;4185;41.506;24.938;2023-02-28T00:02:37;25.53;;;10.23;;
8293;SDS011;4185;41.506;24.938;2023-02-28T00:05:04;26.87;;;9.43;;
8293;SDS011;4185;41.506;24.938;2023-02-28T00:07:32;23.60;;;9.80;;
8293;SDS011;4185;41.506;24.938;2023-02-28T00:10:00;25.40;;;9.97;;
8293;SDS011;4185;41.506;24.938;2023-02-28T00:12:27;23.30;;;10.50;;
8293;SDS011;4185;41.506;24.938;2023-02-28T00:14:55;24.27;;;10.00;;
8293;SDS011;4185;41.506;24.938;2023-02-28T00:17:21;25.43;;;10.47;;
8293;SDS011;4185;41.506;24.938;2023-02-28T00:19:48;21.90;;;11.70;;
8293;SDS011;4185;41.506;24.938;2023-02-28T00:22:17;25.27;;;12.33;;
8293;SDS011;4185;41.506;24.938;2023-02-28T00:24:45;42.27;;;13.27;;
8293;SDS011;4185;41.506;24.938;2023-02-28T00:27:12;24.10;;;12.00;;
8293;SDS011;4185;41.506;24.938;2023-02-28T00:29:39;27.00;;;11.87;;
8293;SDS011;4185;41.506;24.938;2023-02-28T00:32:08;32.60;;;12.40;;
8293;SDS011;4185;41.506;24.938;2023-02-28T00:34:34;29.33;;;12.17;;
8293;SDS011;4185;41.506;24.938;2023-02-28T00:37:03;34.07;;;12.23;;
8293;SDS011;4185;41.506;24.938;2023-02-28T00:39:30;26.23;;;11.13;;
8293;SDS011;4185;41.506;24.938;2023-02-28T00:41:57;37.67;;;16.90;;
8293;SDS011;4185;41.506;24.938;2023-02-28T00:44:24;26.33;;;13.13;;
8293;SDS011;4185;41.506;24.938;2023-02-28T00:46:51;33.53;;;11.97;;
8293;SDS011;4185;41.506;24.938;2023-02-28T00:49:20;33.70;;;12.50;;
8293;SDS011;4185;41.506;24.938;2023-02-28T00:51:47;28.60;;;12.47;;
8293;SDS011;4185;41.506;24.938;2023-02-28T00:54:14;25.33;;;11.00;;
8293;SDS011;4185;41.506;24.938;2023-02-28T00:56:41;30.37;;;12.33;;
8293;SDS011;4185;41.506;24.938;2023-02-28T00:59:08;24.10;;;11.60;;
8293;SDS011;4185;41.506;24.938;2023-02-28T01:01:36;26.63;;;11.97;;
8293;SDS011;4185;41.506;24.938;2023-02-28T01:04:03;31.03;;;11.67;;
8293;SDS011;4185;41.506;24.938;2023-02-28T01:06:31;29.60;;;11.10;;
8293;SDS011;4185;41.506;24.938;2023-02-28T01:08:58;27.03;;;12.27;;
8293;SDS011;4185;41.506;24.938;2023-02-28T01:11:24;25.50;;;12.33;;
8293;SDS011;4185;41.506;24.938;2023-02-28T01:13:52;28.53;;;14.27;;
8293;SDS011;4185;41.506;24.938;2023-02-28T01:16:19;39.30;;;14.17;;
8293;SDS011;4185;41.506;24.938;2023-02-28T01:18:46;29.90;;;10.73;;
8293;SDS011;4185;41.506;24.938;2023-02-28T01:21:13;22.17;;;9.80;;
8293;SDS011;4185;41.506;24.938;2023-02-28T01:23:43;29.23;;;10.63;;
8293;SDS011;4185;41.506;24.938;2023-02-28T01:26:11;21.80;;;11.43;;
8293;SDS011;4185;41.506;24.938;2023-02-28T01:28:39;27.67;;;11.17;;
8293;SDS011;4185;41.506;24.938;2023-02-28T01:31:06;22.30;;;10.30;;
8293;SDS011;4185;41.506;24.938;2023-02-28T01:33:34;24.07;;;10.33;;
8293;SDS011;4185;41.506;24.938;2023-02-28T01:36:02;23.47;;;10.60;;
8293;SDS011;4185;41.506;24.938;2023-02-28T01:38:31;24.40;;;11.00;;
8293;SDS011;4185;41.506;24.938;2023-02-28T01:41:00;31.53;;;12.33;;
8293;SDS011;4185;41.506;24.938;2023-02-28T01:43:27;23.43;;;11.03;;
8293;SDS011;4185;41.506;24.938;2023-02-28T01:45:56;24.23;;;11.53;;
8293;SDS011;4185;41.506;24.938;2023-02-28T01:48:25;30.33;;;11.67;;
8293;SDS011;4185;41.506;24.938;2023-02-28T01:50:54;24.23;;;10.57;;
8293;SDS011;4185;41.506;24.938;2023-02-28T01:53:26;25.47;;;10.47;;
8293;SDS011;4185;41.506;24.938;2023-02-28T01:55:57;30.00;;;10.10;;
8293;SDS011;4185;41.506;24.938;2023-02-28T01:58:26;24.83;;;11.73;;
8293;SDS011;4185;41.506;24.938;2023-02-28T02:00:53;28.77;;;12.67;;
8293;SDS011;4185;41.506;24.938;2023-02-28T02:03:19;28.37;;;12.00;;
8293;SDS011;4185;41.506;24.938;2023-02-28T02:05:47;28.10;;;11.30;;
8293;SDS011;4185;41.506;24.938;2023-02-28T02:08:15;29.03;;;12.17;;
8293;SDS011;4185;41.506;24.938;2023-02-28T02:10:45;22.37;;;10.27;;
8293;SDS011;4185;41.506;24.938;2023-02-28T02:16:23;25.13;;;12.30;;
8293;SDS011;4185;41.506;24.938;2023-02-28T02:19:02;35.43;;;13.27;;
8293;SDS011;4185;41.506;24.938;2023-02-28T02:21:47;22.33;;;10.83;;
8293;SDS011;4185;41.506;24.938;2023-02-28T02:24:40;32.17;;;12.07;;
8293;SDS011;4185;41.506;24.938;2023-02-28T02:27:26;28.30;;;11.47;;
8293;SDS011;4185;41.506;24.938;2023-02-28T02:30:23;23.47;;;11.87;;
8293;SDS011;4185;41.506;24.938;2023-02-28T02:33:40;21.07;;;10.30;;
8293;SDS011;4185;41.506;24.938;2023-02-28T02:36:21;22.07;;;11.33;;
8293;SDS011;4185;41.506;24.938;2023-02-28T02:38:56;26.03;;;11.93;;
8293;SDS011;4185;41.506;24.938;2023-02-28T02:41:32;28.73;;;11.87;;
8293;SDS011;4185;41.506;24.938;2023-02-28T02:44:04;32.67;;;12.17;;
8293;SDS011;4185;41.506;24.938;2023-02-28T02:46:39;28.47;;;11.97;;
8293;SDS011;4185;41.506;24.938;2023-02-28T02:49:09;23.23;;;11.53;;
8293;SDS011;4185;41.506;24.938;2023-02-28T02:51:41;22.60;;;11.50;;
8293;SDS011;4185;41.506;24.938;2023-02-28T02:54:11;24.77;;;10.33;;
8293;SDS011;4185;41.506;24.938;2023-02-28T02:56:41;29.37;;;11.13;;
8293;SDS011;4185;41.506;24.938;2023-02-28T02:59:12;27.20;;;10.90;;
8293;SDS011;4185;41.506;24.938;2023-02-28T03:01:46;24.97;;;11.20;;
8293;SDS011;4185;41.506;24.938;2023-02-28T03:04:18;28.57;;;10.73;;
8293;SDS011;4185;41.506;24.938;2023-02-28T03:06:49;23.70;;;10.63;;
8293;SDS011;4185;41.506;24.938;2023-02-28T03:09:19;24.70;;;10.57;;
8293;SDS011;4185;41.506;24.938;2023-02-28T03:11:46;26.83;;;11.07;;
8293;SDS011;4185;41.506;24.938;2023-02-28T03:17:15;26.77;;;11.90;;
8293;SDS011;4185;41.506;24.938;2023-02-28T03:19:52;18.43;;;10.50;;
8293;SDS011;4185;41.506;24.938;2023-02-28T03:22:36;25.97;;;11.77;;
8293;SDS011;4185;41.506;24.938;2023-02-28T03:25:16;25.77;;;10.70;;
8293;SDS011;4185;41.506;24.938;2023-02-28T03:27:49;25.20;;;11.53;;
8293;SDS011;4185;41.506;24.938;2023-02-28T03:30:27;28.10;;;11.97;;
8293;SDS011;4185;41.506;24.938;2023-02-28T03:33:02;20.10;;;10.37;;
8293;SDS011;4185;41.506;24.938;2023-02-28T03:35:34;27.00;;;12.00;;
8293;SDS011;4185;41.506;24.938;2023-02-28T03:38:07;36.33;;;14.10;;
8293;SDS011;4185;41.506;24.938;2023-02-28T03:40:41;40.57;;;13.73;;
8293;SDS011;4185;41.506;24.938;2023-02-28T03:43:13;33.10;;;15.07;;
8293;SDS011;4185;41.506;24.938;2023-02-28T03:45:43;23.90;;;11.97;;
8293;SDS011;4185;41.506;24.938;2023-02-28T03:48:13;23.13;;;12.90;;
8293;SDS011;4185;41.506;24.938;2023-02-28T03:50:44;32.70;;;14.27;;
8293;SDS011;4185;41.506;24.938;2023-02-28T03:53:16;25.23;;;12.40;;
8293;SDS011;4185;41.506;24.938;2023-02-28T03:55:48;24.40;;;11.63;;
8293;SDS011;4185;41.506;24.938;2023-02-28T03:58:20;25.73;;;11.77;;
8293;SDS011;4185;41.506;24.938;2023-02-28T04:00:55;23.97;;;11.87;;
8293;SDS011;4185;41.506;24.938;2023-02-28T04:03:32;26.50;;;11.57;;
8293;SDS011;4185;41.506;24.938;2023-02-28T04:05:59;25.77;;;10.33;;
8293;SDS011;4185;41.506;24.938;2023-02-28T04:08:27;26.93;;;10.93;;
8293;SDS011;4185;41.506;24.938;2023-02-28T04:10:56;32.30;;;11.27;;
8293;SDS011;4185;41.506;24.938;2023-02-28T04:13:29;19.73;;;11.07;;
8293;SDS011;4185;41.506;24.938;2023-02-28T04:15:56;27.43;;;11.80;;
8293;SDS011;4185;41.506;24.938;2023-02-28T04:18:23;31.63;;;11.17;;
8293;SDS011;4185;41.506;24.938;2023-02-28T04:20:49;26.57;;;10.97;;
8293;SDS011;4185;41.506;24.938;2023-02-28T04:23:16;29.67;;;11.77;;
8293;SDS011;4185;41.506;24.938;2023-02-28T04:25:44;20.67;;;10.30;;
8293;SDS011;4185;41.506;24.938;2023-02-28T04:28:11;33.53;;;14.03;;
8293;SDS011;4185;41.506;24.938;2023-02-28T04:30:38;32.93;;;14.90;;
8293;SDS011;4185;41.506;24.938;2023-02-28T04:33:05;32.40;;;18.20;;
8293;SDS011;4185;41.506;24.938;2023-02-28T04:35:32;62.40;;;27.63;;
8293;SDS011;4185;41.506;24.938;2023-02-28T04:37:59;40.40;;;16.93;;
8293;SDS011;4185;41.506;24.938;2023-02-28T04:40:26;20.20;;;11.53;;
8293;SDS011;4185;41.506;24.938;2023-02-28T04:42:54;29.47;;;13.03;;
8293;SDS011;4185;41.506;24.938;2023-02-28T04:45:20;33.27;;;17.73;;
8293;SDS011;4185;41.506;24.938;2023-02-28T04:47:47;42.13;;;19.27;;
8293;SDS011;4185;41.506;24.938;2023-02-28T04:50:14;36.00;;;16.33;;
8293;SDS011;4185;41.506;24.938;2023-02-28T04:52:41;30.23;;;16.60;;
8293;SDS011;4185;41.506;24.938;2023-02-28T04:55:08;34.70;;;15.90;;
8293;SDS011;4185;41.506;24.938;2023-02-28T04:57:35;33.13;;;14.80;;
8293;SDS011;4185;41.506;24.938;2023-02-28T05:00:04;32.10;;;17.07;;
8293;SDS011;4185;41.506;24.938;2023-02-28T05:02:36;40.87;;;18.43;;
8293;SDS011;4185;41.506;24.938;2023-02-28T05:05:03;31.93;;;16.17;;
8293;SDS011;4185;41.506;24.938;2023-02-28T05:07:30;27.17;;;15.07;;
8293;SDS011;4185;41.506;24.938;2023-02-28T05:09:58;34.20;;;18.07;;
8293;SDS011;4185;41.506;24.938;2023-02-28T05:12:25;31.27;;;15.30;;
8293;SDS011;4185;41.506;24.938;2023-02-28T05:14:51;21.47;;;11.73;;
8293;SDS011;4185;41.506;24.938;2023-02-28T05:17:19;27.53;;;12.57;;
8293;SDS011;4185;41.506;24.938;2023-02-28T05:19:46;27.57;;;13.10;;
8293;SDS011;4185;41.506;24.938;2023-02-28T05:22:14;26.27;;;15.40;;
8293;SDS011;4185;41.506;24.938;2023-02-28T05:24:42;28.23;;;13.93;;
8293;SDS011;4185;41.506;24.938;2023-02-28T05:27:08;31.80;;;16.10;;
8293;SDS011;4185;41.506;24.938;2023-02-28T05:29:36;34.10;;;16.83;;
8293;SDS011;4185;41.506;24.938;2023-02-28T05:32:10;32.23;;;14.13;;
8293;SDS011;4185;41.506;24.938;2023-02-28T05:34:39;29.53;;;14.60;;
8293;SDS011;4185;41.506;24.938;2023-02-28T05:37:10;33.60;;;14.30;;
8293;SDS011;4185;41.506;24.938;2023-02-28T05:39:38;47.20;;;20.63;;
8293;SDS011;4185;41.506;24.938;2023-02-28T05:42:06;66.57;;;29.27;;
8293;SDS011;4185;41.506;24.938;2023-02-28T05:44:32;43.17;;;19.60;;
8293;SDS011;4185;41.506;24.938;2023-02-28T05:47:00;38.17;;;18.20;;
8293;SDS011;4185;41.506;24.938;2023-02-28T05:49:26;34.40;;;19.80;;
8293;SDS011;4185;41.506;24.938;2023-02-28T05:51:55;32.60;;;17.53;;
8293;SDS011;4185;41.506;24.938;2023-02-28T05:54:21;34.37;;;16.93;;
8293;SDS011;4185;41.506;24.938;2023-02-28T05:56:49;39.13;;;16.77;;
8293;SDS011;4185;41.506;24.938;2023-02-28T05:59:15;36.17;;;16.87;;
8293;SDS011;4185;41.506;24.938;2023-02-28T06:01:43;33.87;;;15.77;;
8293;SDS011;4185;41.506;24.938;2023-02-28T06:04:13;47.70;;;21.70;;
8293;SDS011;4185;41.506;24.938;2023-02-28T06:06:43;42.77;;;22.10;;
8293;SDS011;4185;41.506;24.938;2023-02-28T06:09:11;165.60;;;65.87;;
8293;SDS011;4185;41.506;24.938;2023-02-28T06:11:38;102.33;;;38.63;;
8293;SDS011;4185;41.506;24.938;2023-02-28T06:14:05;61.10;;;29.07;;
8293;SDS011;4185;41.506;24.938;2023-02-28T06:16:33;60.07;;;28.37;;
8293;SDS011;4185;41.506;24.938;2023-02-28T06:19:01;46.87;;;24.17;;
8293;SDS011;4185;41.506;24.938;2023-02-28T06:21:30;75.90;;;28.23;;
8293;SDS011;4185;41.506;24.938;2023-02-28T06:23:57;52.13;;;23.23;;
8293;SDS011;4185;41.506;24.938;2023-02-28T06:26:25;50.90;;;27.97;;
8293;SDS011;4185;41.506;24.938;2023-02-28T06:28:54;43.03;;;21.03;;
8293;SDS011;4185;41.506;24.938;2023-02-28T06:31:21;49.67;;;26.07;;
8293;SDS011;4185;41.506;24.938;2023-02-28T06:33:54;50.77;;;25.33;;
8293;SDS011;4185;41.506;24.938;2023-02-28T06:36:24;50.23;;;25.87;;
8293;SDS011;4185;41.506;24.938;2023-02-28T06:38:51;43.33;;;25.07;;
8293;SDS011;4185;41.506;24.938;2023-02-28T06:41:20;30.40;;;16.37;;
8293;SDS011;4185;41.506;24.938;2023-02-28T06:43:50;37.10;;;19.07;;
8293;SDS011;4185;41.506;24.938;2023-02-28T06:46:17;44.00;;;24.63;;
8293;SDS011;4185;41.506;24.938;2023-02-28T06:48:44;30.03;;;16.33;;
8293;SDS011;4185;41.506;24.938;2023-02-28T06:51:12;33.07;;;16.07;;
8293;SDS011;4185;41.506;24.938;2023-02-28T06:53:41;47.33;;;23.13;;
8293;SDS011;4185;41.506;24.938;2023-02-28T06:56:09;42.93;;;22.37;;
8293;SDS011;4185;41.506;24.938;2023-02-28T06:58:37;32.80;;;19.53;;
8293;SDS011;4185;41.506;24.938;2023-02-28T07:01:07;30.90;;;18.37;;
8293;SDS011;4185;41.506;24.938;2023-02-28T07:03:35;39.27;;;20.33;;
8293;SDS011;4185;41.506;24.938;2023-02-28T07:06:02;37.00;;;20.80;;
8293;SDS011;4185;41.506;24.938;2023-02-28T07:08:30;49.50;;;24.23;;
8293;SDS011;4185;41.506;24.938;2023-02-28T07:10:58;47.03;;;25.30;;
8293;SDS011;4185;41.506;24.938;2023-02-28T07:13:25;45.13;;;24.20;;
8293;SDS011;4185;41.506;24.938;2023-02-28T07:15:55;50.30;;;25.50;;
8293;SDS011;4185;41.506;24.938;2023-02-28T07:18:24;47.63;;;23.60;;
8293;SDS011;4185;41.506;24.938;2023-02-28T07:20:51;43.33;;;22.73;;
8293;SDS011;4185;41.506;24.938;2023-02-28T07:23:18;36.40;;;22.13;;
8293;SDS011;4185;41.506;24.938;2023-02-28T07:25:45;46.23;;;24.63;;
8293;SDS011;4185;41.506;24.938;2023-02-28T07:28:12;54.67;;;26.30;;
8293;SDS011;4185;41.506;24.938;2023-02-28T07:30:39;67.40;;;31.67;;
8293;SDS011;4185;41.506;24.938;2023-02-28T07:33:07;63.07;;;34.30;;
8293;SDS011;4185;41.506;24.938;2023-02-28T07:35:35;67.10;;;33.27;;
8293;SDS011;4185;41.506;24.938;2023-02-28T07:38:03;59.57;;;30.67;;
8293;SDS011;4185;41.506;24.938;2023-02-28T07:40:30;56.50;;;29.73;;
8293;SDS011;4185;41.506;24.938;2023-02-28T07:42:57;55.07;;;28.87;;
8293;SDS011;4185;41.506;24.938;2023-02-28T07:45:29;57.50;;;28.20;;
8293;SDS011;4185;41.506;24.938;2023-02-28T07:47:59;49.57;;;26.10;;
8293;SDS011;4185;41.506;24.938;2023-02-28T07:50:26;54.93;;;28.60;;
8293;SDS011;4185;41.506;24.938;2023-02-28T07:52:57;45.03;;;27.60;;
8293;SDS011;4185;41.506;24.938;2023-02-28T07:55:24;47.00;;;27.23;;
8293;SDS011;4185;41.506;24.938;2023-02-28T07:57:50;54.70;;;24.33;;
8293;SDS011;4185;41.506;24.938;2023-02-28T08:00:18;51.23;;;26.27;;
8293;SDS011;4185;41.506;24.938;2023-02-28T08:02:45;38.93;;;21.23;;
8293;SDS011;4185;41.506;24.938;2023-02-28T08:05:11;29.07;;;15.47;;
8293;SDS011;4185;41.506;24.938;2023-02-28T08:07:38;43.50;;;19.53;;
8293;SDS011;4185;41.506;24.938;2023-02-28T08:10:07;50.23;;;23.63;;
8293;SDS011;4185;41.506;24.938;2023-02-28T08:12:35;43.93;;;22.67;;
8293;SDS011;4185;41.506;24.938;2023-02-28T08:15:02;42.43;;;18.87;;
8293;SDS011;4185;41.506;24.938;2023-02-28T08:17:29;48.63;;;21.87;;
8293;SDS011;4185;41.506;24.938;2023-02-28T08:20:00;41.03;;;19.10;;
8293;SDS011;4185;41.506;24.938;2023-02-28T08:22:29;37.13;;;18.77;;
8293;SDS011;4185;41.506;24.938;2023-02-28T08:24:55;37.00;;;19.60;;
8293;SDS011;4185;41.506;24.938;2023-02-28T08:27:24;30.13;;;19.67;;
8293;SDS011;4185;41.506;24.938;2023-02-28T08:29:50;39.33;;;19.03;;
8293;SDS011;4185;41.506;24.938;2023-02-28T08:32:17;40.20;;;20.00;;
8293;SDS011;4185;41.506;24.938;2023-02-28T08:34:44;40.43;;;20.70;;
8293;SDS011;4185;41.506;24.938;2023-02-28T08:37:11;40.13;;;21.00;;
8293;SDS011;4185;41.506;24.938;2023-02-28T08:39:38;34.43;;;19.43;;
8293;SDS011;4185;41.506;24.938;2023-02-28T08:42:05;39.83;;;19.93;;
8293;SDS011;4185;41.506;24.938;2023-02-28T08:44:33;37.13;;;17.30;;
8293;SDS011;4185;41.506;24.938;2023-02-28T08:47:00;39.67;;;17.27;;
8293;SDS011;4185;41.506;24.938;2023-02-28T08:49:27;34.17;;;14.07;;
8293;SDS011;4185;41.506;24.938;2023-02-28T08:51:54;26.57;;;14.07;;
8293;SDS011;4185;41.506;24.938;2023-02-28T08:54:22;19.17;;;13.63;;
8293;SDS011;4185;41.506;24.938;2023-02-28T08:56:49;27.33;;;12.40;;
8293;SDS011;4185;41.506;24.938;2023-02-28T08:59:15;24.47;;;11.57;;
8293;SDS011;4185;41.506;24.938;2023-02-28T09:01:44;24.70;;;11.17;;
8293;SDS011;4185;41.506;24.938;2023-02-28T09:04:10;20.17;;;9.30;;
8293;SDS011;4185;41.506;24.938;2023-02-28T09:06:37;26.23;;;10.03;;
8293;SDS011;4185;41.506;24.938;2023-02-28T09:09:04;22.47;;;10.07;;
8293;SDS011;4185;41.506;24.938;2023-02-28T09:11:32;24.33;;;9.60;;
8293;SDS011;4185;41.506;24.938;2023-02-28T09:14:00;27.30;;;10.70;;
8293;SDS011;4185;41.506;24.938;2023-02-28T09:16:28;25.20;;;9.03;;
8293;SDS011;4185;41.506;24.938;2023-02-28T09:18:57;29.80;;;11.20;;
8293;SDS011;4185;41.506;24.938;2023-02-28T09:21:23;20.73;;;11.00;;
8293;SDS011;4185;41.506;24.938;2023-02-28T09:23:50;21.47;;;10.23;;
8293;SDS011;4185;41.506;24.938;2023-02-28T09:26:18;20.27;;;9.70;;
8293;SDS011;4185;41.506;24.938;2023-02-28T09:28:47;21.77;;;8.73;;
8293;SDS011;4185;41.506;24.938;2023-02-28T09:31:15;25.27;;;11.53;;
8293;SDS011;4185;41.506;24.938;2023-02-28T09:33:45;25.57;;;11.97;;
8293;SDS011;4185;41.506;24.938;2023-02-28T09:36:14;26.07;;;14.37;;
8293;SDS011;4185;41.506;24.938;2023-02-28T09:38:41;25.37;;;11.57;;
8293;SDS011;4185;41.506;24.938;2023-02-28T09:41:11;23.57;;;9.47;;
8293;SDS011;4185;41.506;24.938;2023-02-28T09:43:43;20.63;;;9.43;;
8293;SDS011;4185;41.506;24.938;2023-02-28T09:46:14;26.23;;;11.27;;
8293;SDS011;4185;41.506;24.938;2023-02-28T09:48:49;21.13;;;9.30;;
8293;SDS011;4185;41.506;24.938;2023-02-28T09:51:27;16.13;;;8.47;;
8293;SDS011;4185;41.506;24.938;2023-02-28T09:54:11;22.90;;;10.20;;
8293;SDS011;4185;41.506;24.938;2023-02-28T09:56:44;18.40;;;8.30;;
8293;SDS011;4185;41.506;24.938;2023-02-28T09:59:14;21.63;;;8.80;;
8293;SDS011;4185;41.506;24.938;2023-02-28T10:01:53;20.17;;;9.47;;
8293;SDS011;4185;41.506;24.938;2023-02-28T10:04:35;24.93;;;9.53;;
8293;SDS011;4185;41.506;24.938;2023-02-28T10:07:14;25.83;;;9.93;;
8293;SDS011;4185;41.506;24.938;2023-02-28T10:09:49;22.67;;;10.37;;
8293;SDS011;4185;41.506;24.938;2023-02-28T10:12:21;33.50;;;11.90;;
8293;SDS011;4185;41.506;24.938;2023-02-28T10:14:50;33.03;;;14.57;;
8293;SDS011;4185;41.506;24.938;2023-02-28T10:17:19;26.60;;;12.03;;
8293;SDS011;4185;41.506;24.938;2023-02-28T10:19:53;27.83;;;11.93;;
8293;SDS011;4185;41.506;24.938;2023-02-28T10:22:27;23.73;;;11.10;;
8293;SDS011;4185;41.506;24.938;2023-02-28T10:25:16;38.40;;;18.13;;
8293;SDS011;4185;41.506;24.938;2023-02-28T10:27:45;37.90;;;16.47;;
8293;SDS011;4185;41.506;24.938;2023-02-28T10:30:12;33.27;;;14.47;;
8293;SDS011;4185;41.506;24.938;2023-02-28T10:32:40;34.03;;;14.80;;
8293;SDS011;4185;41.506;24.938;2023-02-28T10:35:15;26.83;;;10.10;;
8293;SDS011;4185;41.506;24.938;2023-02-28T10:37:46;22.33;;;11.43;;
8293;SDS011;4185;41.506;24.938;2023-02-28T10:40:25;10.50;;;6.23;;
8293;SDS011;4185;41.506;24.938;2023-02-28T10:42:56;7.70;;;5.87;;
8293;SDS011;4185;41.506;24.938;2023-02-28T10:45:24;9.10;;;4.57;;
8293;SDS011;4185;41.506;24.938;2023-02-28T10:47:53;7.13;;;5.33;;
8293;SDS011;4185;41.506;24.938;2023-02-28T10:50:33;9.67;;;5.03;;
8293;SDS011;4185;41.506;24.938;2023-02-28T10:55:57;12.37;;;7.77;;
8293;SDS011;4185;41.506;24.938;2023-02-28T10:58:29;19.73;;;12.47;;
8293;SDS011;4185;41.506;24.938;2023-02-28T11:00:58;12.67;;;6.77;;
8293;SDS011;4185;41.506;24.938;2023-02-28T11:03:29;12.70;;;7.83;;
8293;SDS011;4185;41.506;24.938;2023-02-28T11:05:58;13.93;;;9.10;;
8293;SDS011;4185;41.506;24.938;2023-02-28T11:08:26;26.90;;;17.10;;
8293;SDS011;4185;41.506;24.938;2023-02-28T11:10:54;18.93;;;10.03;;
8293;SDS011;4185;41.506;24.938;2023-02-28T11:13:25;19.03;;;9.53;;
8293;SDS011;4185;41.506;24.938;2023-02-28T11:15:55;18.97;;;8.60;;
8293;SDS011;4185;41.506;24.938;2023-02-28T11:18:24;14.17;;;8.57;;
8293;SDS011;4185;41.506;24.938;2023-02-28T11:20:55;15.37;;;10.00;;
8293;SDS011;4185;41.506;24.938;2023-02-28T11:23:27;16.17;;;9.93;;
8293;SDS011;4185;41.506;24.938;2023-02-28T11:25:58;20.33;;;9.73;;
8293;SDS011;4185;41.506;24.938;2023-02-28T11:28:27;14.00;;;9.20;;
8293;SDS011;4185;41.506;24.938;2023-02-28T11:31:00;16.40;;;8.37;;
8293;SDS011;4185;41.506;24.938;2023-02-28T11:33:30;14.93;;;8.20;;
8293;SDS011;4185;41.506;24.938;2023-02-28T11:36:00;14.60;;;7.70;;
8293;SDS011;4185;41.506;24.938;2023-02-28T11:38:30;20.37;;;9.43;;
8293;SDS011;4185;41.506;24.938;2023-02-28T11:41:06;18.60;;;8.10;;
8293;SDS011;4185;41.506;24.938;2023-02-28T11:43:54;15.80;;;8.23;;
8293;SDS011;4185;41.506;24.938;2023-02-28T11:46:31;18.20;;;9.77;;
8293;SDS011;4185;41.506;24.938;2023-02-28T11:49:07;11.43;;;6.27;;
8293;SDS011;4185;41.506;24.938;2023-02-28T11:51:51;11.47;;;6.47;;
8293;SDS011;4185;41.506;24.938;2023-02-28T11:54:29;23.47;;;12.20;;
8293;SDS011;4185;41.506;24.938;2023-02-28T11:57:09;35.90;;;18.23;;
8293;SDS011;4185;41.506;24.938;2023-02-28T11:59:47;15.97;;;10.23;;
8293;SDS011;4185;41.506;24.938;2023-02-28T12:02:26;27.27;;;14.13;;
8293;SDS011;4185;41.506;24.938;2023-02-28T12:05:03;17.50;;;10.27;;
8293;SDS011;4185;41.506;24.938;2023-02-28T12:07:45;15.00;;;9.43;;
8293;SDS011;4185;41.506;24.938;2023-02-28T12:10:21;16.53;;;8.90;;
8293;SDS011;4185;41.506;24.938;2023-02-28T12:12:54;8.67;;;6.23;;
8293;SDS011;4185;41.506;24.938;2023-02-28T12:15:38;9.93;;;5.93;;
8293;SDS011;4185;41.506;24.938;2023-02-28T12:18:17;10.13;;;6.13;;
8293;SDS011;4185;41.506;24.938;2023-02-28T12:20:59;9.30;;;5.47;;
8293;SDS011;4185;41.506;24.938;2023-02-28T12:23:41;7.97;;;4.80;;
8293;SDS011;4185;41.506;24.938;2023-02-28T12:26:16;7.60;;;4.37;;
8293;SDS011;4185;41.506;24.938;2023-02-28T12:28:53;7.80;;;4.87;;
8293;SDS011;4185;41.506;24.938;2023-02-28T12:31:24;7.37;;;4.70;;
8293;SDS011;4185;41.506;24.938;2023-02-28T12:33:56;10.10;;;5.60;;
8293;SDS011;4185;41.506;24.938;2023-02-28T12:36:29;4.30;;;3.27;;
8293;SDS011;4185;41.506;24.938;2023-02-28T12:38:56;4.80;;;3.87;;
8293;SDS011;4185;41.506;24.938;2023-02-28T12:41:32;5.17;;;3.83;;
8293;SDS011;4185;41.506;24.938;2023-02-28T12:44:06;6.37;;;4.00;;
8293;SDS011;4185;41.506;24.938;2023-02-28T12:46:39;4.60;;;3.50;;
8293;SDS011;4185;41.506;24.938;2023-02-28T12:49:12;6.73;;;3.90;;
8293;SDS011;4185;41.506;24.938;2023-02-28T12:51:42;8.30;;;4.70;;
8293;SDS011;4185;41.506;24.938;2023-02-28T12:54:14;8.77;;;5.10;;
8293;SDS011;4185;41.506;24.938;2023-02-28T12:56:49;12.47;;;8.60;;
8293;SDS011;4185;41.506;24.938;2023-02-28T12:59:25;10.13;;;6.20;;
8293;SDS011;4185;41.506;24.938;2023-02-28T13:05:03;8.93;;;5.57;;
8293;SDS011;4185;41.506;24.938;2023-02-28T13:07:46;31.03;;;11.20;;
8293;SDS011;4185;41.506;24.938;2023-02-28T13:10:36;10.27;;;7.10;;
8293;SDS011;4185;41.506;24.938;2023-02-28T13:13:11;9.93;;;6.03;;
8293;SDS011;4185;41.506;24.938;2023-02-28T13:15:42;17.10;;;8.33;;
8293;SDS011;4185;41.506;24.938;2023-02-28T13:18:28;15.57;;;7.30;;
8293;SDS011;4185;41.506;24.938;2023-02-28T13:20:58;10.87;;;6.77;;
8293;SDS011;4185;41.506;24.938;2023-02-28T13:23:37;11.03;;;8.33;;
8293;SDS011;4185;41.506;24.938;2023-02-28T13:26:21;13.13;;;7.93;;
8293;SDS011;4185;41.506;24.938;2023-02-28T13:35:13;10.80;;;7.57;;
8293;SDS011;4185;41.506;24.938;2023-02-28T13:37:42;13.80;;;7.63;;
8293;SDS011;4185;41.506;24.938;2023-02-28T13:40:29;15.37;;;9.60;;
8293;SDS011;4185;41.506;24.938;2023-02-28T13:43:01;26.87;;;15.03;;
8293;SDS011;4185;41.506;24.938;2023-02-28T13:45:30;15.50;;;10.67;;
8293;SDS011;4185;41.506;24.938;2023-02-28T13:48:03;15.07;;;9.50;;
8293;SDS011;4185;41.506;24.938;2023-02-28T13:50:40;14.73;;;9.20;;
8293;SDS011;4185;41.506;24.938;2023-02-28T13:56:25;43.03;;;22.77;;
8293;SDS011;4185;41.506;24.938;2023-02-28T13:59:02;27.07;;;14.17;;
8293;SDS011;4185;41.506;24.938;2023-02-28T14:01:45;13.30;;;8.63;;
8293;SDS011;4185;41.506;24.938;2023-02-28T14:07:18;20.33;;;13.87;;
8293;SDS011;4185;41.506;24.938;2023-02-28T14:09:51;14.67;;;9.13;;
8293;SDS011;4185;41.506;24.938;2023-02-28T14:15:28;9.03;;;6.23;;
8293;SDS011;4185;41.506;24.938;2023-02-28T14:18:17;9.40;;;5.50;;
8293;SDS011;4185;41.506;24.938;2023-02-28T14:20:51;7.53;;;4.93;;
8293;SDS011;4185;41.506;24.938;2023-02-28T14:23:25;9.23;;;5.97;;
8293;SDS011;4185;41.506;24.938;2023-02-28T14:26:14;24.17;;;14.60;;
8293;SDS011;4185;41.506;24.938;2023-02-28T14:28:59;11.33;;;7.57;;
8293;SDS011;4185;41.506;24.938;2023-02-28T14:31:44;9.13;;;7.43;;
8293;SDS011;4185;41.506;24.938;2023-02-28T14:34:25;13.50;;;10.07;;
8293;SDS011;4185;41.506;24.938;2023-02-28T14:37:01;8.63;;;5.90;;
8293;SDS011;4185;41.506;24.938;2023-02-28T14:39:29;9.00;;;7.13;;
8293;SDS011;4185;41.506;24.938;2023-02-28T14:41:57;11.03;;;8.03;;
8293;SDS011;4185;41.506;24.938;2023-02-28T14:44:28;8.03;;;6.10;;
8293;SDS011;4185;41.506;24.938;2023-02-28T14:46:57;6.97;;;5.33;;
8293;SDS011;4185;41.506;24.938;2023-02-28T14:49:30;6.77;;;5.83;;
8293;SDS011;4185;41.506;24.938;2023-02-28T14:52:05;9.73;;;6.60;;
8293;SDS011;4185;41.506;24.938;2023-02-28T14:54:37;13.70;;;8.97;;
8293;SDS011;4185;41.506;24.938;2023-02-28T14:57:05;11.90;;;9.30;;
8293;SDS011;4185;41.506;24.938;2023-02-28T14:59:33;10.63;;;7.60;;
8293;SDS011;4185;41.506;24.938;2023-02-28T15:02:17;10.63;;;7.93;;
8293;SDS011;4185;41.506;24.938;2023-02-28T15:04:53;9.07;;;6.30;;
8293;SDS011;4185;41.506;24.938;2023-02-28T15:07:21;11.87;;;7.57;;
8293;SDS011;4185;41.506;24.938;2023-02-28T15:10:06;9.00;;;6.50;;
8293;SDS011;4185;41.506;24.938;2023-02-28T15:12:34;10.10;;;7.60;;
8293;SDS011;4185;41.506;24.938;2023-02-28T15:15:02;5.37;;;4.57;;
8293;SDS011;4185;41.506;24.938;2023-02-28T15:17:29;5.50;;;4.33;;
8293;SDS011;4185;41.506;24.938;2023-02-28T15:19:58;5.03;;;4.57;;
8293;SDS011;4185;41.506;24.938;2023-02-28T15:22:27;5.13;;;4.63;;
8293;SDS011;4185;41.506;24.938;2023-02-28T15:24:58;6.13;;;3.63;;
8293;SDS011;4185;41.506;24.938;2023-02-28T15:27:28;4.70;;;3.83;;
8293;SDS011;4185;41.506;24.938;2023-02-28T15:29:57;3.73;;;3.37;;